createdAt,value
2022-10-28T00:01:01.834Z,99.90
2022-10-28T00:11:03.184Z,99.90
2022-10-28T00:21:01.755Z,99.90
2022-10-28T00:31:06.184Z,99.90
2022-10-28T00:41:03.328Z,99.90
2022-10-28T00:51:00.641Z,99.90
2022-10-28T01:00:57.993Z,99.90
2022-10-28T01:11:11.411Z,99.90
2022-10-28T01:21:08.560Z,99.90
2022-10-28T01:31:29.221Z,99.90
2022-10-28T01:41:34.231Z,99.90
2022-10-28T01:51:39.896Z,99.90
2022-10-28T02:01:37.287Z,99.90
2022-10-28T02:11:39.360Z,99.90
2022-10-28T02:21:48.625Z,99.90
2022-10-28T02:31:48.117Z,99.90
2022-10-28T02:41:49.700Z,99.90
2022-10-28T02:51:49.895Z,99.90
2022-10-28T03:01:47.289Z,99.90
2022-10-28T03:11:44.513Z,99.90
2022-10-28T03:21:41.710Z,99.90
2022-10-28T03:31:39.051Z,99.90
2022-10-28T03:41:36.271Z,99.90
2022-10-28T03:51:33.366Z,99.90
2022-10-28T04:01:30.722Z,99.90
2022-10-28T04:11:27.818Z,99.90
2022-10-28T04:21:24.952Z,99.90
2022-10-28T04:31:21.952Z,99.90
2022-10-28T04:41:18.968Z,99.90
2022-10-28T04:51:15.934Z,99.90
2022-10-28T05:01:13.017Z,99.90
2022-10-28T05:11:10.147Z,99.90
2022-10-28T05:21:07.212Z,99.90
2022-10-28T05:31:04.420Z,99.90
2022-10-28T05:41:01.644Z,99.90
2022-10-28T05:50:58.608Z,99.90
2022-10-28T06:00:55.854Z,99.90
2022-10-28T06:10:55.836Z,99.90
2022-10-28T06:20:56.867Z,99.90
2022-10-28T06:30:53.900Z,99.90
2022-10-28T06:40:52.506Z,99.90
2022-10-28T06:50:51.574Z,99.90
2022-10-28T07:00:48.823Z,99.90
2022-10-28T07:10:53.485Z,99.90
2022-10-28T07:20:50.546Z,99.90
2022-10-28T07:30:47.680Z,99.90
2022-10-28T07:40:44.897Z,99.90
2022-10-28T07:50:41.820Z,99.90
2022-10-28T08:00:39.014Z,99.90
2022-10-28T08:10:36.249Z,99.90
2022-10-28T08:20:33.513Z,99.90
2022-10-28T08:30:36.520Z,99.90
2022-10-28T08:41:05.315Z,99.90
2022-10-28T08:51:02.522Z,99.90
2022-10-28T09:01:00.265Z,99.90
2022-10-28T09:11:16.132Z,99.90
2022-10-28T09:21:18.200Z,99.90
2022-10-28T09:31:38.291Z,99.90
2022-10-28T09:41:38.693Z,99.90
2022-10-28T09:51:38.706Z,99.90
2022-10-28T10:01:38.261Z,99.90
2022-10-28T10:11:43.890Z,91.00
2022-10-28T10:21:41.390Z,91.20
2022-10-28T10:31:38.451Z,69.40
2022-10-28T10:41:39.923Z,56.10
2022-10-28T10:51:40.163Z,46.40
2022-10-28T11:01:39.829Z,37.80
2022-10-28T11:11:38.304Z,34.40
2022-10-28T11:21:35.471Z,32.30
2022-10-28T11:31:35.526Z,32.20
2022-10-28T11:41:55.634Z,29.50
2022-10-28T11:51:57.282Z,28.50
2022-10-28T12:02:06.742Z,25.20
2022-10-28T12:12:16.843Z,24.30
2022-10-28T12:22:18.138Z,24.10
2022-10-28T12:32:20.124Z,23.40
2022-10-28T12:42:32.795Z,22.20
2022-10-28T12:52:48.751Z,21.70
2022-10-28T13:03:07.729Z,21.10
2022-10-28T13:13:09.453Z,20.40
2022-10-28T13:23:15.924Z,21.20
2022-10-28T13:33:17.843Z,22.40
2022-10-28T13:43:38.063Z,22.40
2022-10-28T13:53:40.034Z,21.50
2022-10-28T14:03:37.269Z,23.60
2022-10-28T14:14:00.539Z,22.50
2022-10-28T14:24:09.334Z,22.30
2022-10-28T14:34:12.372Z,23.30
2022-10-28T14:44:13.904Z,25.00
2022-10-28T14:54:16.011Z,27.40
2022-10-28T15:04:13.822Z,28.80
2022-10-28T15:14:25.876Z,29.70
2022-10-28T15:24:22.984Z,30.80
2022-10-28T15:34:20.998Z,31.00
2022-10-28T15:44:36.969Z,31.90
2022-10-28T15:54:34.159Z,33.30
2022-10-28T16:04:34.144Z,35.10
2022-10-28T16:14:34.137Z,35.30
2022-10-28T16:24:31.394Z,35.30
2022-10-28T16:34:28.646Z,35.00
2022-10-28T16:44:26.534Z,34.90
2022-10-28T16:54:23.632Z,34.70
2022-10-28T17:04:20.859Z,36.30
2022-10-28T17:14:18.092Z,37.90
2022-10-28T17:24:15.175Z,37.60
2022-10-28T17:34:12.430Z,38.20
2022-10-28T17:44:09.551Z,39.00
2022-10-28T17:54:06.748Z,40.80
2022-10-28T18:04:04.719Z,40.40
2022-10-28T18:14:03.521Z,41.80
2022-10-28T18:24:06.500Z,41.80
2022-10-28T18:34:03.946Z,44.20
2022-10-28T18:44:02.501Z,48.10
2022-10-28T18:53:59.747Z,51.20
2022-10-28T19:03:58.461Z,49.70
2022-10-28T19:13:57.701Z,47.40
2022-10-28T19:23:54.897Z,46.20
2022-10-28T19:33:52.850Z,44.80
2022-10-28T19:43:55.180Z,43.50
2022-10-28T19:53:56.689Z,43.60
2022-10-28T20:03:54.383Z,44.80
2022-10-28T20:13:55.121Z,46.40
2022-10-28T20:23:56.100Z,46.00
2022-10-28T20:33:54.677Z,45.90
2022-10-28T20:43:52.532Z,44.90
2022-10-28T20:53:49.993Z,44.80
2022-10-28T21:03:47.478Z,45.50
2022-10-28T21:13:46.399Z,46.20
2022-10-28T21:23:43.883Z,48.20
2022-10-28T21:33:41.572Z,48.70
2022-10-28T21:43:39.811Z,51.90
2022-10-28T21:53:37.751Z,53.30
2022-10-28T22:03:35.240Z,56.60
2022-10-28T22:13:32.841Z,57.10
2022-10-28T22:23:30.004Z,56.70
2022-10-28T22:33:27.286Z,57.30
2022-10-28T22:43:24.410Z,57.40
2022-10-28T22:53:21.919Z,58.30
2022-10-28T23:03:19.613Z,59.30
2022-10-28T23:13:16.826Z,60.60
2022-10-28T23:23:14.076Z,60.70
2022-10-28T23:33:11.240Z,59.80
2022-10-28T23:43:08.426Z,61.10
2022-10-28T23:53:05.743Z,59.80
